Normal, Illinois
Current Conditions -  °F | °C
As of 7:56 PM on Friday 28 Nov 2014 (Local Time) from KBMI Reporting Station
Clear Clear  
Wind Chill: 24°   Ceiling: Unl
Heat Index: 34°   Visibility: 9mi
Dew Point: 32°   Wind: 15mph
Humidity: 92%   Direction: 170°S
Pressure: 29.92"   Gusts: NA
Location:  40.51°N, 88.99°W
Report Text: KBMI 290156Z 17013KT 9SM CLR 01/00 A2992 RMK AO2 T00110000 SLP152
Loading
Personal Weather Stations






























Interactive Weather Map New forecast layout! Learn more

10-Day Weather Forecast

Advertisements
Track Severe Weather on mobile